Phillips, Wisconsin
Current Conditions -  °F | °C
As of 12:55 AM on Thursday 23 Oct 2014 (Local Time) from KPBH Reporting Station
Overcast Overcast  
Wind Chill: 44°   Ceiling: 3500
Heat Index: 47°   Visibility: 10mi
Dew Point: 36°   Wind: 7mph
Humidity: 64%   Direction: 200°SSW
Pressure: 30.12"   Gusts: NA
Location:  45.69°N, 90.41°W
Report Text: KPBH 230555Z AUTO 20006KT 10SM SCT031 OVC035 09/02 A3012 RMK AO2 T00850021 10095 20080 401331025
Loading
Personal Weather Stations






























Interactive Weather Map New forecast layout! Learn more

10-Day Weather Forecast

Advertisements
Track Severe Weather on mobile